sensor_id;sensor_type;location;lat;lon;timestamp;P1;durP1;ratioP1;P2;durP2;ratioP2
47617;SDS011;33336;36.728;-4.414;2022-12-10T00:02:15;9.75;;;2.58;;
47617;SDS011;33336;36.728;-4.414;2022-12-10T00:07:20;8.00;;;2.78;;
47617;SDS011;33336;36.728;-4.414;2022-12-10T00:12:23;7.63;;;2.88;;
47617;SDS011;33336;36.728;-4.414;2022-12-10T00:17:26;9.50;;;3.35;;
47617;SDS011;33336;36.728;-4.414;2022-12-10T00:22:30;8.80;;;2.92;;
47617;SDS011;33336;36.728;-4.414;2022-12-10T00:27:34;6.43;;;2.72;;
47617;SDS011;33336;36.728;-4.414;2022-12-10T00:32:37;8.55;;;3.10;;
47617;SDS011;33336;36.728;-4.414;2022-12-10T00:37:42;5.07;;;2.47;;
47617;SDS011;33336;36.728;-4.414;2022-12-10T00:42:44;4.20;;;1.60;;
47617;SDS011;33336;36.728;-4.414;2022-12-10T00:47:47;6.28;;;2.35;;
47617;SDS011;33336;36.728;-4.414;2022-12-10T00:52:51;5.90;;;3.60;;
47617;SDS011;33336;36.728;-4.414;2022-12-10T00:57:55;7.13;;;2.45;;
47617;SDS011;33336;36.728;-4.414;2022-12-10T01:02:58;12.65;;;3.80;;
47617;SDS011;33336;36.728;-4.414;2022-12-10T01:08:02;10.15;;;2.55;;
47617;SDS011;33336;36.728;-4.414;2022-12-10T01:13:05;6.40;;;2.83;;
47617;SDS011;33336;36.728;-4.414;2022-12-10T01:18:08;5.88;;;2.60;;
47617;SDS011;33336;36.728;-4.414;2022-12-10T01:23:12;7.13;;;2.40;;
47617;SDS011;33336;36.728;-4.414;2022-12-10T01:28:15;5.43;;;2.83;;
47617;SDS011;33336;36.728;-4.414;2022-12-10T01:33:18;4.25;;;1.83;;
47617;SDS011;33336;36.728;-4.414;2022-12-10T01:38:23;6.97;;;3.63;;
47617;SDS011;33336;36.728;-4.414;2022-12-10T01:43:26;18.15;;;15.95;;
47617;SDS011;33336;36.728;-4.414;2022-12-10T01:48:30;8.20;;;3.40;;
47617;SDS011;33336;36.728;-4.414;2022-12-10T01:53:34;6.05;;;2.10;;
47617;SDS011;33336;36.728;-4.414;2022-12-10T01:58:37;7.45;;;3.50;;
47617;SDS011;33336;36.728;-4.414;2022-12-10T02:03:44;10.95;;;3.47;;
47617;SDS011;33336;36.728;-4.414;2022-12-10T02:08:57;11.60;;;4.38;;
47617;SDS011;33336;36.728;-4.414;2022-12-10T02:14:06;11.00;;;3.90;;
47617;SDS011;33336;36.728;-4.414;2022-12-10T02:19:18;12.35;;;3.10;;
47617;SDS011;33336;36.728;-4.414;2022-12-10T02:24:30;13.60;;;4.00;;
47617;SDS011;33336;36.728;-4.414;2022-12-10T02:34:41;8.02;;;3.03;;
47617;SDS011;33336;36.728;-4.414;2022-12-10T02:39:49;7.87;;;3.30;;
47617;SDS011;33336;36.728;-4.414;2022-12-10T02:44:56;7.80;;;2.90;;
47617;SDS011;33336;36.728;-4.414;2022-12-10T02:50:00;4.57;;;2.42;;
47617;SDS011;33336;36.728;-4.414;2022-12-10T02:55:04;11.70;;;2.20;;
47617;SDS011;33336;36.728;-4.414;2022-12-10T03:00:10;7.07;;;1.75;;
47617;SDS011;33336;36.728;-4.414;2022-12-10T03:05:17;7.82;;;3.20;;
47617;SDS011;33336;36.728;-4.414;2022-12-10T03:10:28;6.85;;;2.38;;
47617;SDS011;33336;36.728;-4.414;2022-12-10T03:15:39;5.00;;;1.23;;
47617;SDS011;33336;36.728;-4.414;2022-12-10T03:20:45;6.33;;;1.03;;
47617;SDS011;33336;36.728;-4.414;2022-12-10T03:25:49;4.65;;;1.42;;
47617;SDS011;33336;36.728;-4.414;2022-12-10T03:30:54;5.65;;;1.42;;
47617;SDS011;33336;36.728;-4.414;2022-12-10T03:35:58;5.90;;;1.92;;
47617;SDS011;33336;36.728;-4.414;2022-12-10T03:41:02;5.75;;;1.30;;
47617;SDS011;33336;36.728;-4.414;2022-12-10T03:46:07;4.35;;;0.77;;
47617;SDS011;33336;36.728;-4.414;2022-12-10T03:51:10;2.35;;;0.70;;
47617;SDS011;33336;36.728;-4.414;2022-12-10T03:56:13;3.33;;;0.50;;
47617;SDS011;33336;36.728;-4.414;2022-12-10T04:01:18;2.47;;;0.47;;
47617;SDS011;33336;36.728;-4.414;2022-12-10T04:06:20;4.03;;;0.40;;
47617;SDS011;33336;36.728;-4.414;2022-12-10T04:11:24;0.95;;;0.35;;
47617;SDS011;33336;36.728;-4.414;2022-12-10T04:16:30;5.18;;;0.60;;
47617;SDS011;33336;36.728;-4.414;2022-12-10T04:21:35;3.53;;;0.47;;
47617;SDS011;33336;36.728;-4.414;2022-12-10T04:26:58;3.05;;;0.50;;
47617;SDS011;33336;36.728;-4.414;2022-12-10T04:32:06;3.08;;;0.50;;
47617;SDS011;33336;36.728;-4.414;2022-12-10T04:37:08;4.45;;;0.80;;
47617;SDS011;33336;36.728;-4.414;2022-12-10T04:42:13;3.72;;;0.90;;
47617;SDS011;33336;36.728;-4.414;2022-12-10T04:47:18;2.33;;;0.45;;
47617;SDS011;33336;36.728;-4.414;2022-12-10T04:52:21;1.13;;;0.40;;
47617;SDS011;33336;36.728;-4.414;2022-12-10T04:57:24;0.75;;;0.30;;
47617;SDS011;33336;36.728;-4.414;2022-12-10T05:02:29;2.90;;;0.30;;
47617;SDS011;33336;36.728;-4.414;2022-12-10T05:07:32;3.15;;;0.40;;
47617;SDS011;33336;36.728;-4.414;2022-12-10T05:12:35;0.38;;;0.20;;
47617;SDS011;33336;36.728;-4.414;2022-12-10T05:17:40;5.70;;;0.65;;
47617;SDS011;33336;36.728;-4.414;2022-12-10T05:22:43;2.92;;;0.60;;
47617;SDS011;33336;36.728;-4.414;2022-12-10T05:28:03;3.17;;;1.48;;
47617;SDS011;33336;36.728;-4.414;2022-12-10T05:33:09;4.35;;;0.55;;
47617;SDS011;33336;36.728;-4.414;2022-12-10T05:38:11;3.95;;;0.80;;
47617;SDS011;33336;36.728;-4.414;2022-12-10T05:43:14;2.72;;;0.82;;
47617;SDS011;33336;36.728;-4.414;2022-12-10T05:48:20;2.85;;;0.60;;
47617;SDS011;33336;36.728;-4.414;2022-12-10T05:53:23;1.67;;;0.65;;
47617;SDS011;33336;36.728;-4.414;2022-12-10T05:58:26;2.30;;;0.63;;
47617;SDS011;33336;36.728;-4.414;2022-12-10T06:03:31;1.83;;;0.60;;
47617;SDS011;33336;36.728;-4.414;2022-12-10T06:08:34;2.15;;;1.00;;
47617;SDS011;33336;36.728;-4.414;2022-12-10T06:13:38;3.63;;;1.27;;
47617;SDS011;33336;36.728;-4.414;2022-12-10T06:18:43;2.05;;;0.95;;
47617;SDS011;33336;36.728;-4.414;2022-12-10T06:23:46;3.67;;;1.13;;
47617;SDS011;33336;36.728;-4.414;2022-12-10T06:28:52;3.97;;;1.40;;
47617;SDS011;33336;36.728;-4.414;2022-12-10T06:33:57;5.07;;;1.30;;
47617;SDS011;33336;36.728;-4.414;2022-12-10T06:39:00;2.10;;;1.00;;
47617;SDS011;33336;36.728;-4.414;2022-12-10T06:44:06;1.83;;;1.20;;
47617;SDS011;33336;36.728;-4.414;2022-12-10T06:49:11;8.65;;;1.38;;
47617;SDS011;33336;36.728;-4.414;2022-12-10T06:54:13;4.18;;;1.30;;
47617;SDS011;33336;36.728;-4.414;2022-12-10T06:59:16;1.75;;;1.10;;
47617;SDS011;33336;36.728;-4.414;2022-12-10T07:04:22;3.70;;;0.80;;
47617;SDS011;33336;36.728;-4.414;2022-12-10T07:09:25;1.73;;;0.90;;
47617;SDS011;33336;36.728;-4.414;2022-12-10T07:14:28;5.30;;;1.45;;
47617;SDS011;33336;36.728;-4.414;2022-12-10T07:19:32;5.22;;;1.20;;
47617;SDS011;33336;36.728;-4.414;2022-12-10T07:24:35;3.20;;;0.90;;
47617;SDS011;33336;36.728;-4.414;2022-12-10T07:29:39;3.22;;;0.90;;
47617;SDS011;33336;36.728;-4.414;2022-12-10T07:34:44;1.90;;;0.60;;
47617;SDS011;33336;36.728;-4.414;2022-12-10T07:39:47;3.42;;;0.60;;
47617;SDS011;33336;36.728;-4.414;2022-12-10T07:44:50;4.45;;;0.57;;
47617;SDS011;33336;36.728;-4.414;2022-12-10T07:49:55;2.53;;;0.80;;
47617;SDS011;33336;36.728;-4.414;2022-12-10T07:54:57;4.25;;;2.33;;
47617;SDS011;33336;36.728;-4.414;2022-12-10T08:00:03;2.08;;;0.55;;
47617;SDS011;33336;36.728;-4.414;2022-12-10T08:05:08;4.63;;;0.90;;
47617;SDS011;33336;36.728;-4.414;2022-12-10T08:10:12;4.75;;;0.65;;
47617;SDS011;33336;36.728;-4.414;2022-12-10T08:15:15;4.28;;;0.73;;
47617;SDS011;33336;36.728;-4.414;2022-12-10T08:20:21;2.50;;;1.10;;
47617;SDS011;33336;36.728;-4.414;2022-12-10T08:25:23;4.18;;;0.85;;
47617;SDS011;33336;36.728;-4.414;2022-12-10T08:30:27;2.38;;;0.73;;
47617;SDS011;33336;36.728;-4.414;2022-12-10T08:35:31;3.30;;;0.82;;
47617;SDS011;33336;36.728;-4.414;2022-12-10T08:40:38;0.80;;;0.47;;
47617;SDS011;33336;36.728;-4.414;2022-12-10T08:45:41;2.90;;;1.70;;
47617;SDS011;33336;36.728;-4.414;2022-12-10T08:50:46;2.55;;;0.73;;
47617;SDS011;33336;36.728;-4.414;2022-12-10T08:55:50;2.67;;;0.95;;
47617;SDS011;33336;36.728;-4.414;2022-12-10T09:00:55;1.80;;;0.75;;
47617;SDS011;33336;36.728;-4.414;2022-12-10T09:06:02;1.50;;;0.55;;
47617;SDS011;33336;36.728;-4.414;2022-12-10T09:11:07;4.68;;;1.02;;
47617;SDS011;33336;36.728;-4.414;2022-12-10T09:16:11;4.75;;;1.40;;
47617;SDS011;33336;36.728;-4.414;2022-12-10T09:21:16;4.43;;;1.27;;
47617;SDS011;33336;36.728;-4.414;2022-12-10T09:26:20;2.05;;;0.68;;
47617;SDS011;33336;36.728;-4.414;2022-12-10T09:31:23;2.53;;;0.95;;
47617;SDS011;33336;36.728;-4.414;2022-12-10T09:36:27;7.20;;;1.13;;
47617;SDS011;33336;36.728;-4.414;2022-12-10T09:47:04;4.72;;;0.85;;
47617;SDS011;33336;36.728;-4.414;2022-12-10T09:52:13;3.08;;;1.05;;
47617;SDS011;33336;36.728;-4.414;2022-12-10T09:57:19;2.80;;;0.90;;
47617;SDS011;33336;36.728;-4.414;2022-12-10T10:02:25;3.63;;;0.88;;
47617;SDS011;33336;36.728;-4.414;2022-12-10T10:07:33;1.80;;;0.52;;
47617;SDS011;33336;36.728;-4.414;2022-12-10T10:12:40;2.85;;;0.90;;
47617;SDS011;33336;36.728;-4.414;2022-12-10T10:17:43;2.65;;;0.82;;
47617;SDS011;33336;36.728;-4.414;2022-12-10T10:22:52;3.30;;;0.98;;
47617;SDS011;33336;36.728;-4.414;2022-12-10T10:27:59;5.43;;;0.80;;
47617;SDS011;33336;36.728;-4.414;2022-12-10T10:33:07;1.85;;;0.50;;
47617;SDS011;33336;36.728;-4.414;2022-12-10T10:38:17;1.73;;;0.70;;
47617;SDS011;33336;36.728;-4.414;2022-12-10T10:43:25;1.58;;;0.60;;
47617;SDS011;33336;36.728;-4.414;2022-12-10T10:48:29;1.70;;;0.80;;
47617;SDS011;33336;36.728;-4.414;2022-12-10T10:53:39;2.55;;;0.82;;
47617;SDS011;33336;36.728;-4.414;2022-12-10T10:58:45;2.80;;;0.77;;
47617;SDS011;33336;36.728;-4.414;2022-12-10T11:03:55;3.33;;;0.77;;
47617;SDS011;33336;36.728;-4.414;2022-12-10T11:09:01;9.63;;;1.33;;
47617;SDS011;33336;36.728;-4.414;2022-12-10T11:14:14;1.53;;;0.40;;
47617;SDS011;33336;36.728;-4.414;2022-12-10T11:19:18;4.03;;;0.98;;
47617;SDS011;33336;36.728;-4.414;2022-12-10T11:24:25;2.20;;;0.88;;
47617;SDS011;33336;36.728;-4.414;2022-12-10T11:35:01;1.70;;;0.60;;
47617;SDS011;33336;36.728;-4.414;2022-12-10T11:40:15;1.35;;;0.65;;
47617;SDS011;33336;36.728;-4.414;2022-12-10T11:45:33;1.45;;;0.50;;
47617;SDS011;33336;36.728;-4.414;2022-12-10T11:50:48;1.95;;;0.50;;
47617;SDS011;33336;36.728;-4.414;2022-12-10T11:55:58;1.67;;;0.60;;
47617;SDS011;33336;36.728;-4.414;2022-12-10T12:01:09;3.63;;;0.80;;
47617;SDS011;33336;36.728;-4.414;2022-12-10T12:06:26;4.85;;;0.65;;
47617;SDS011;33336;36.728;-4.414;2022-12-10T12:11:56;2.35;;;0.95;;
47617;SDS011;33336;36.728;-4.414;2022-12-10T12:17:11;3.25;;;0.85;;
47617;SDS011;33336;36.728;-4.414;2022-12-10T12:22:23;3.38;;;1.13;;
47617;SDS011;33336;36.728;-4.414;2022-12-10T12:27:32;2.53;;;0.90;;
47617;SDS011;33336;36.728;-4.414;2022-12-10T12:32:42;1.40;;;0.70;;
47617;SDS011;33336;36.728;-4.414;2022-12-10T12:37:53;4.45;;;1.00;;
47617;SDS011;33336;36.728;-4.414;2022-12-10T12:43:02;3.78;;;0.80;;
47617;SDS011;33336;36.728;-4.414;2022-12-10T12:48:11;1.83;;;0.63;;
47617;SDS011;33336;36.728;-4.414;2022-12-10T12:53:21;2.97;;;0.95;;
47617;SDS011;33336;36.728;-4.414;2022-12-10T12:58:33;3.65;;;0.90;;
47617;SDS011;33336;36.728;-4.414;2022-12-10T13:03:41;4.05;;;0.63;;
47617;SDS011;33336;36.728;-4.414;2022-12-10T13:08:47;1.23;;;0.57;;
47617;SDS011;33336;36.728;-4.414;2022-12-10T13:14:11;1.33;;;0.60;;
47617;SDS011;33336;36.728;-4.414;2022-12-10T13:19:27;0.82;;;0.52;;
47617;SDS011;33336;36.728;-4.414;2022-12-10T13:24:44;2.38;;;1.05;;
47617;SDS011;33336;36.728;-4.414;2022-12-10T13:30:33;4.10;;;0.70;;
47617;SDS011;33336;36.728;-4.414;2022-12-10T13:35:42;2.08;;;0.95;;
47617;SDS011;33336;36.728;-4.414;2022-12-10T13:41:01;6.22;;;1.20;;
47617;SDS011;33336;36.728;-4.414;2022-12-10T13:46:25;0.82;;;0.68;;
47617;SDS011;33336;36.728;-4.414;2022-12-10T13:51:42;4.22;;;1.70;;
47617;SDS011;33336;36.728;-4.414;2022-12-10T13:56:51;3.10;;;0.98;;
47617;SDS011;33336;36.728;-4.414;2022-12-10T14:02:13;2.13;;;0.65;;
47617;SDS011;33336;36.728;-4.414;2022-12-10T14:07:30;3.60;;;1.00;;
47617;SDS011;33336;36.728;-4.414;2022-12-10T14:12:35;3.00;;;0.80;;
47617;SDS011;33336;36.728;-4.414;2022-12-10T14:17:42;2.40;;;1.20;;
47617;SDS011;33336;36.728;-4.414;2022-12-10T14:22:47;1.33;;;0.83;;
47617;SDS011;33336;36.728;-4.414;2022-12-10T14:27:51;2.08;;;0.63;;
47617;SDS011;33336;36.728;-4.414;2022-12-10T14:32:58;1.23;;;0.55;;
47617;SDS011;33336;36.728;-4.414;2022-12-10T14:38:02;1.92;;;0.60;;
47617;SDS011;33336;36.728;-4.414;2022-12-10T14:43:06;1.92;;;0.60;;
47617;SDS011;33336;36.728;-4.414;2022-12-10T14:48:15;1.58;;;0.50;;
47617;SDS011;33336;36.728;-4.414;2022-12-10T14:53:19;1.40;;;0.40;;
47617;SDS011;33336;36.728;-4.414;2022-12-10T14:58:26;3.55;;;1.25;;
47617;SDS011;33336;36.728;-4.414;2022-12-10T15:03:37;3.22;;;0.70;;
47617;SDS011;33336;36.728;-4.414;2022-12-10T15:08:46;1.67;;;0.70;;
47617;SDS011;33336;36.728;-4.414;2022-12-10T15:13:51;1.42;;;0.65;;
47617;SDS011;33336;36.728;-4.414;2022-12-10T15:19:07;1.50;;;0.77;;
47617;SDS011;33336;36.728;-4.414;2022-12-10T15:24:18;1.08;;;0.57;;
47617;SDS011;33336;36.728;-4.414;2022-12-10T15:29:33;0.95;;;0.68;;
47617;SDS011;33336;36.728;-4.414;2022-12-10T15:34:41;2.50;;;0.85;;
47617;SDS011;33336;36.728;-4.414;2022-12-10T15:39:47;1.50;;;0.60;;
47617;SDS011;33336;36.728;-4.414;2022-12-10T15:44:54;0.98;;;0.40;;
47617;SDS011;33336;36.728;-4.414;2022-12-10T15:50:02;1.58;;;0.70;;
47617;SDS011;33336;36.728;-4.414;2022-12-10T15:55:06;4.57;;;0.65;;
47617;SDS011;33336;36.728;-4.414;2022-12-10T16:00:17;1.25;;;0.57;;
47617;SDS011;33336;36.728;-4.414;2022-12-10T16:05:23;3.17;;;0.80;;
47617;SDS011;33336;36.728;-4.414;2022-12-10T16:10:30;2.25;;;0.88;;
47617;SDS011;33336;36.728;-4.414;2022-12-10T16:15:37;6.88;;;0.80;;
47617;SDS011;33336;36.728;-4.414;2022-12-10T16:20:53;2.30;;;0.90;;
47617;SDS011;33336;36.728;-4.414;2022-12-10T16:26:09;3.63;;;0.90;;
47617;SDS011;33336;36.728;-4.414;2022-12-10T16:31:16;3.15;;;0.98;;
47617;SDS011;33336;36.728;-4.414;2022-12-10T16:36:22;2.65;;;0.85;;
47617;SDS011;33336;36.728;-4.414;2022-12-10T16:41:26;4.32;;;0.73;;
47617;SDS011;33336;36.728;-4.414;2022-12-10T16:46:30;2.95;;;0.95;;
47617;SDS011;33336;36.728;-4.414;2022-12-10T16:51:35;2.75;;;1.15;;
47617;SDS011;33336;36.728;-4.414;2022-12-10T16:56:39;2.47;;;1.20;;
47617;SDS011;33336;36.728;-4.414;2022-12-10T17:01:45;2.40;;;0.80;;
47617;SDS011;33336;36.728;-4.414;2022-12-10T17:06:50;2.42;;;0.70;;
47617;SDS011;33336;36.728;-4.414;2022-12-10T17:11:54;1.90;;;0.80;;
47617;SDS011;33336;36.728;-4.414;2022-12-10T17:16:58;2.30;;;0.60;;
47617;SDS011;33336;36.728;-4.414;2022-12-10T17:22:05;2.78;;;1.27;;
47617;SDS011;33336;36.728;-4.414;2022-12-10T17:27:10;2.83;;;0.85;;
47617;SDS011;33336;36.728;-4.414;2022-12-10T17:32:16;5.75;;;0.85;;
47617;SDS011;33336;36.728;-4.414;2022-12-10T17:37:25;3.88;;;0.93;;
47617;SDS011;33336;36.728;-4.414;2022-12-10T17:42:33;8.50;;;1.38;;
47617;SDS011;33336;36.728;-4.414;2022-12-10T17:47:36;3.55;;;1.08;;
47617;SDS011;33336;36.728;-4.414;2022-12-10T17:52:40;2.67;;;0.80;;
47617;SDS011;33336;36.728;-4.414;2022-12-10T17:57:43;2.53;;;1.08;;
47617;SDS011;33336;36.728;-4.414;2022-12-10T18:02:46;9.10;;;1.60;;
47617;SDS011;33336;36.728;-4.414;2022-12-10T18:07:51;3.72;;;1.00;;
47617;SDS011;33336;36.728;-4.414;2022-12-10T18:12:54;5.43;;;1.20;;
47617;SDS011;33336;36.728;-4.414;2022-12-10T18:17:59;4.25;;;0.95;;
47617;SDS011;33336;36.728;-4.414;2022-12-10T18:23:05;2.50;;;0.90;;
47617;SDS011;33336;36.728;-4.414;2022-12-10T18:28:15;3.40;;;1.15;;
47617;SDS011;33336;36.728;-4.414;2022-12-10T18:34:05;5.22;;;1.13;;
47617;SDS011;33336;36.728;-4.414;2022-12-10T18:39:16;4.60;;;0.90;;
47617;SDS011;33336;36.728;-4.414;2022-12-10T18:44:23;5.50;;;1.20;;
47617;SDS011;33336;36.728;-4.414;2022-12-10T18:49:29;2.88;;;0.98;;
47617;SDS011;33336;36.728;-4.414;2022-12-10T18:54:33;4.53;;;1.08;;
47617;SDS011;33336;36.728;-4.414;2022-12-10T18:59:37;3.80;;;1.02;;
47617;SDS011;33336;36.728;-4.414;2022-12-10T19:04:40;1.90;;;0.60;;
47617;SDS011;33336;36.728;-4.414;2022-12-10T19:09:47;7.50;;;0.98;;
47617;SDS011;33336;36.728;-4.414;2022-12-10T19:14:52;2.50;;;0.90;;
47617;SDS011;33336;36.728;-4.414;2022-12-10T19:19:57;3.53;;;1.38;;
47617;SDS011;33336;36.728;-4.414;2022-12-10T19:25:01;2.28;;;0.80;;
47617;SDS011;33336;36.728;-4.414;2022-12-10T19:30:09;3.22;;;1.00;;
47617;SDS011;33336;36.728;-4.414;2022-12-10T19:35:20;4.30;;;1.27;;
47617;SDS011;33336;36.728;-4.414;2022-12-10T19:40:30;9.30;;;1.42;;
47617;SDS011;33336;36.728;-4.414;2022-12-10T19:45:34;3.90;;;1.67;;
47617;SDS011;33336;36.728;-4.414;2022-12-10T19:50:38;4.20;;;1.30;;
47617;SDS011;33336;36.728;-4.414;2022-12-10T19:55:42;5.20;;;1.50;;
47617;SDS011;33336;36.728;-4.414;2022-12-10T20:00:46;6.10;;;1.73;;
47617;SDS011;33336;36.728;-4.414;2022-12-10T20:05:49;2.55;;;1.15;;
47617;SDS011;33336;36.728;-4.414;2022-12-10T20:10:59;6.10;;;1.60;;
47617;SDS011;33336;36.728;-4.414;2022-12-10T20:16:11;3.75;;;1.00;;
47617;SDS011;33336;36.728;-4.414;2022-12-10T20:21:18;6.15;;;2.42;;
47617;SDS011;33336;36.728;-4.414;2022-12-10T20:26:24;3.55;;;1.08;;
47617;SDS011;33336;36.728;-4.414;2022-12-10T20:31:34;5.72;;;2.10;;
47617;SDS011;33336;36.728;-4.414;2022-12-10T20:36:38;10.37;;;3.80;;
47617;SDS011;33336;36.728;-4.414;2022-12-10T20:41:44;13.27;;;4.30;;
47617;SDS011;33336;36.728;-4.414;2022-12-10T20:46:48;8.30;;;5.07;;
47617;SDS011;33336;36.728;-4.414;2022-12-10T20:51:53;9.15;;;4.38;;
47617;SDS011;33336;36.728;-4.414;2022-12-10T20:56:57;7.38;;;3.22;;
47617;SDS011;33336;36.728;-4.414;2022-12-10T21:02:01;10.55;;;3.78;;
47617;SDS011;33336;36.728;-4.414;2022-12-10T21:07:03;3.80;;;1.30;;
47617;SDS011;33336;36.728;-4.414;2022-12-10T21:12:08;4.97;;;2.15;;
47617;SDS011;33336;36.728;-4.414;2022-12-10T21:17:11;6.97;;;1.30;;
47617;SDS011;33336;36.728;-4.414;2022-12-10T21:22:28;7.88;;;2.90;;
47617;SDS011;33336;36.728;-4.414;2022-12-10T21:27:34;7.35;;;2.47;;
47617;SDS011;33336;36.728;-4.414;2022-12-10T21:32:38;11.82;;;2.47;;
47617;SDS011;33336;36.728;-4.414;2022-12-10T21:37:43;3.45;;;2.15;;
47617;SDS011;33336;36.728;-4.414;2022-12-10T21:42:52;4.55;;;1.33;;
47617;SDS011;33336;36.728;-4.414;2022-12-10T21:48:13;5.25;;;1.85;;
47617;SDS011;33336;36.728;-4.414;2022-12-10T21:53:18;7.05;;;2.90;;
47617;SDS011;33336;36.728;-4.414;2022-12-10T21:58:22;8.73;;;3.60;;
47617;SDS011;33336;36.728;-4.414;2022-12-10T22:03:26;5.53;;;2.80;;
47617;SDS011;33336;36.728;-4.414;2022-12-10T22:08:28;4.57;;;1.35;;
47617;SDS011;33336;36.728;-4.414;2022-12-10T22:13:33;8.27;;;1.45;;
47617;SDS011;33336;36.728;-4.414;2022-12-10T22:18:36;5.30;;;2.10;;
47617;SDS011;33336;36.728;-4.414;2022-12-10T22:23:42;7.88;;;2.53;;
47617;SDS011;33336;36.728;-4.414;2022-12-10T22:28:46;9.98;;;3.05;;
47617;SDS011;33336;36.728;-4.414;2022-12-10T22:33:50;8.77;;;3.33;;
47617;SDS011;33336;36.728;-4.414;2022-12-10T22:38:52;8.43;;;2.75;;
47617;SDS011;33336;36.728;-4.414;2022-12-10T22:44:00;5.68;;;1.80;;
47617;SDS011;33336;36.728;-4.414;2022-12-10T22:49:04;5.20;;;1.40;;
47617;SDS011;33336;36.728;-4.414;2022-12-10T22:54:07;6.65;;;1.75;;
47617;SDS011;33336;36.728;-4.414;2022-12-10T22:59:11;5.45;;;2.25;;
47617;SDS011;33336;36.728;-4.414;2022-12-10T23:04:14;8.48;;;4.35;;
47617;SDS011;33336;36.728;-4.414;2022-12-10T23:09:17;6.80;;;2.85;;
47617;SDS011;33336;36.728;-4.414;2022-12-10T23:14:21;15.13;;;6.13;;
47617;SDS011;33336;36.728;-4.414;2022-12-10T23:19:26;14.98;;;5.32;;
47617;SDS011;33336;36.728;-4.414;2022-12-10T23:24:30;10.68;;;4.43;;
47617;SDS011;33336;36.728;-4.414;2022-12-10T23:29:35;14.20;;;5.75;;
47617;SDS011;33336;36.728;-4.414;2022-12-10T23:34:38;10.82;;;4.43;;
47617;SDS011;33336;36.728;-4.414;2022-12-10T23:39:41;7.57;;;2.88;;
47617;SDS011;33336;36.728;-4.414;2022-12-10T23:44:45;6.28;;;2.85;;
47617;SDS011;33336;36.728;-4.414;2022-12-10T23:49:48;5.47;;;2.47;;
47617;SDS011;33336;36.728;-4.414;2022-12-10T23:54:51;5.40;;;2.03;;
47617;SDS011;33336;36.728;-4.414;2022-12-10T23:59:56;4.88;;;2.55;;
